createdAt,value
2018-08-25T00:00:37.678Z,48.52
2018-08-25T00:01:18.052Z,48.23
2018-08-25T00:01:58.595Z,48.9
2018-08-25T00:02:38.849Z,48.43
2018-08-25T00:03:19.396Z,48.23
2018-08-25T00:03:59.767Z,48.33
2018-08-25T00:04:40.141Z,48.13
2018-08-25T00:05:20.551Z,48.04
2018-08-25T00:06:01.033Z,48.43
2018-08-25T00:06:41.617Z,49
2018-08-25T00:07:21.802Z,48.13
2018-08-25T00:08:02.264Z,48.33
2018-08-25T00:08:42.577Z,48.61
2018-08-25T00:09:23.108Z,48.71
2018-08-25T00:10:03.515Z,48.81
2018-08-25T00:10:43.875Z,48.52
2018-08-25T00:11:24.350Z,48.02
2018-08-25T00:12:04.836Z,48.21
2018-08-25T00:12:45.324Z,49.07
2018-08-25T00:13:25.676Z,49.36
2018-08-25T00:14:06.016Z,49.36
2018-08-25T00:14:46.465Z,49.74
2018-08-25T00:15:26.795Z,49.36
2018-08-25T00:16:07.314Z,48.97
2018-08-25T00:16:47.738Z,49.36
2018-08-25T00:17:28.110Z,49.26
2018-08-25T00:18:08.493Z,49.29
2018-08-25T00:18:48.869Z,49.17
2018-08-25T00:19:29.317Z,49.36
2018-08-25T00:20:09.754Z,49.26
2018-08-25T00:22:08.944Z,48.52
2018-08-25T00:23:01.515Z,48.21
2018-08-25T00:23:53.837Z,49.07
2018-08-25T00:24:46.240Z,49.07
2018-08-25T00:25:38.422Z,49.65
2018-08-25T00:27:48.053Z,48.79
2018-08-25T00:28:42.520Z,49.07
2018-08-25T00:29:37.501Z,48.69
2018-08-25T00:30:38.515Z,49.36
2018-08-25T00:33:10.504Z,49.52
2018-08-25T00:34:07.902Z,49.82
2018-08-25T00:35:01.931Z,50.1
2018-08-25T00:37:29.776Z,50.68
2018-08-25T00:39:45.651Z,51.35
2018-08-25T00:40:39.971Z,50.8
2018-08-25T00:42:45.460Z,50.99
2018-08-25T00:43:25.781Z,51.45
2018-08-25T00:44:06.314Z,50.61
2018-08-25T00:44:46.787Z,50.7
2018-08-25T00:45:27.172Z,51.09
2018-08-25T00:46:07.612Z,51.09
2018-08-25T00:46:47.994Z,50.61
2018-08-25T00:47:28.416Z,50.01
2018-08-25T00:48:08.980Z,50.1
2018-08-25T00:48:49.334Z,50.61
2018-08-25T00:49:29.898Z,51.09
2018-08-25T00:50:10.236Z,51.09
2018-08-25T00:50:50.641Z,51.67
2018-08-25T00:51:31.123Z,50.8
2018-08-25T00:52:11.462Z,50.8
2018-08-25T00:52:51.913Z,50.8
2018-08-25T00:53:32.319Z,50.8
2018-08-25T00:54:12.675Z,50.61
2018-08-25T00:54:53.160Z,50.23
2018-08-25T00:55:33.637Z,50.7
2018-08-25T00:56:14.051Z,50.8
2018-08-25T00:56:54.436Z,50.61
2018-08-25T00:57:36.965Z,50.51
2018-08-25T00:58:17.229Z,50.61
2018-08-25T00:58:57.705Z,50.9
2018-08-25T00:59:38.120Z,50.61
2018-08-25T01:00:18.631Z,50.7
2018-08-25T01:00:59.042Z,50.61
2018-08-25T01:01:39.431Z,50.61
2018-08-25T01:02:19.896Z,50.03
2018-08-25T01:03:00.383Z,49.93
2018-08-25T01:03:40.736Z,50.61
2018-08-25T01:04:21.148Z,50.51
2018-08-25T01:05:01.583Z,50.03
2018-08-25T01:05:42.006Z,50.61
2018-08-25T01:06:22.338Z,50.03
2018-08-25T01:07:02.758Z,50.23
2018-08-25T01:07:43.256Z,50.42
2018-08-25T01:08:23.617Z,50.32
2018-08-25T01:09:04.060Z,50.51
2018-08-25T01:09:44.459Z,50.23
2018-08-25T01:10:24.813Z,50.42
2018-08-25T01:11:05.278Z,49.93
2018-08-25T01:11:45.675Z,49.17
2018-08-25T01:12:26.060Z,50.03
2018-08-25T01:13:06.532Z,50.03
2018-08-25T01:13:46.873Z,49.93
2018-08-25T01:14:27.304Z,50.8
2018-08-25T01:15:07.824Z,50.61
2018-08-25T01:15:48.340Z,50.99
2018-08-25T01:16:28.654Z,50.7
2018-08-25T01:17:09.085Z,50.7
2018-08-25T01:17:49.443Z,50.7
2018-08-25T01:18:30.016Z,50.51
2018-08-25T01:19:10.308Z,50.32
2018-08-25T01:19:50.795Z,51.09
2018-08-25T01:20:31.134Z,50.8
2018-08-25T01:21:11.504Z,51.09
2018-08-25T01:21:51.923Z,51.37
2018-08-25T01:22:32.345Z,51.28
2018-08-25T01:23:12.845Z,50.42
2018-08-25T01:23:53.165Z,50.51
2018-08-25T01:24:33.606Z,51.06
2018-08-25T01:25:14.031Z,50.96
2018-08-25T01:25:54.351Z,51.25
2018-08-25T01:26:34.775Z,50.96
2018-08-25T01:27:15.257Z,51.45
2018-08-25T01:27:55.588Z,51.25
2018-08-25T01:28:36.039Z,51.25
2018-08-25T01:29:16.443Z,51.45
2018-08-25T01:29:56.812Z,51.35
2018-08-25T01:30:37.184Z,51.71
2018-08-25T01:31:17.611Z,52.38
2018-08-25T01:31:58.033Z,52.48
2018-08-25T01:32:38.459Z,52.95
2018-08-25T01:33:19.072Z,53.53
2018-08-25T01:33:59.416Z,53.5
2018-08-25T01:34:39.826Z,53.6
2018-08-25T01:35:20.128Z,54.08
2018-08-25T01:36:00.570Z,54.17
2018-08-25T01:36:40.979Z,54.56
2018-08-25T01:37:21.416Z,54.66
2018-08-25T01:38:01.790Z,53.79
2018-08-25T01:38:42.194Z,54.56
2018-08-25T01:39:22.663Z,54.85
2018-08-25T01:40:03.015Z,54.56
2018-08-25T01:40:43.405Z,54.56
2018-08-25T01:41:23.948Z,54.85
2018-08-25T01:42:04.259Z,54.56
2018-08-25T01:42:44.725Z,54.27
2018-08-25T01:43:25.091Z,55.13
2018-08-25T01:44:05.485Z,55.11
2018-08-25T01:44:45.876Z,55.58
2018-08-25T01:45:26.300Z,55.58
2018-08-25T01:46:06.748Z,55.87
2018-08-25T01:46:47.073Z,55.78
2018-08-25T01:47:27.519Z,55.97
2018-08-25T01:48:07.947Z,56.16
2018-08-25T01:48:48.373Z,55.97
2018-08-25T01:49:28.746Z,56.54
2018-08-25T01:50:09.188Z,56.54
2018-08-25T01:50:49.548Z,57.12
2018-08-25T01:51:30.027Z,57.03
2018-08-25T01:52:10.417Z,56.74
2018-08-25T01:52:50.884Z,57.21
2018-08-25T01:53:31.263Z,57.21
2018-08-25T01:54:11.668Z,57.09
2018-08-25T01:54:52.128Z,57.79
2018-08-25T01:55:32.530Z,57.76
2018-08-25T01:56:13.022Z,57.95
2018-08-25T01:56:53.460Z,57.76
2018-08-25T01:57:33.842Z,57.79
2018-08-25T01:58:14.248Z,57.67
2018-08-25T01:58:54.545Z,57.95
2018-08-25T01:59:34.952Z,58.44
2018-08-25T02:00:15.370Z,58.24
2018-08-25T02:00:55.783Z,58.62
2018-08-25T02:01:36.138Z,58.72
2018-08-25T02:02:16.540Z,58.81
2018-08-25T02:02:57.483Z,58.62
2018-08-25T02:03:37.620Z,58.62
2018-08-25T02:04:18.101Z,58.91
2018-08-25T02:04:58.538Z,58.72
2018-08-25T02:05:38.976Z,58.72
2018-08-25T02:06:19.482Z,58.72
2018-08-25T02:06:59.834Z,58.81
2018-08-25T02:07:40.204Z,58.91
2018-08-25T02:08:20.629Z,58.91
2018-08-25T02:09:01.377Z,58.62
2018-08-25T02:09:41.618Z,59.2
2018-08-25T02:10:22.004Z,59.2
2018-08-25T02:11:02.435Z,59.39
2018-08-25T02:11:42.872Z,59.68
2018-08-25T02:12:23.226Z,59.48
2018-08-25T02:13:03.630Z,59.3
2018-08-25T02:13:44.065Z,59.3
2018-08-25T02:14:24.472Z,59.3
2018-08-25T02:15:04.875Z,59.3
2018-08-25T02:15:45.267Z,59.39
2018-08-25T02:16:25.778Z,59.42
2018-08-25T02:17:06.167Z,59.61
2018-08-25T02:17:46.558Z,59.01
2018-08-25T02:18:26.981Z,59.11
2018-08-25T02:19:07.355Z,58.75
2018-08-25T02:19:47.731Z,59.52
2018-08-25T02:20:28.148Z,58.75
2018-08-25T02:21:08.539Z,58.56
2018-08-25T02:21:48.956Z,58.65
2018-08-25T02:22:29.496Z,58.17
2018-08-25T02:23:09.860Z,58.37
2018-08-25T02:23:50.224Z,58.56
2018-08-25T02:24:30.766Z,58.56
2018-08-25T02:25:11.115Z,59.13
2018-08-25T02:25:51.607Z,58.37
2018-08-25T02:26:32.012Z,58.27
2018-08-25T02:27:12.565Z,58.08
2018-08-25T02:27:52.957Z,57.6
2018-08-25T02:28:33.766Z,57.79
2018-08-25T02:29:14.365Z,57.79
2018-08-25T02:29:54.644Z,58.3
2018-08-25T02:30:35.129Z,57.82
2018-08-25T02:31:15.577Z,57.82
2018-08-25T02:31:55.914Z,57.72
2018-08-25T02:32:36.307Z,57.53
2018-08-25T02:33:16.803Z,57.53
2018-08-25T02:33:57.239Z,57.72
2018-08-25T02:34:38.396Z,57.63
2018-08-25T02:35:18.881Z,57.15
2018-08-25T02:35:59.319Z,57.53
2018-08-25T02:36:39.759Z,57.65
2018-08-25T02:37:20.113Z,57.65
2018-08-25T02:38:00.732Z,58.04
2018-08-25T02:38:41.322Z,56.98
2018-08-25T02:39:22.017Z,56.98
2018-08-25T02:40:02.192Z,57.08
2018-08-25T02:40:42.618Z,56.79
2018-08-25T02:41:23.112Z,56.79
2018-08-25T02:42:04.550Z,57.65
2018-08-25T02:42:44.615Z,57.28
2018-08-25T02:43:25.149Z,58.14
2018-08-25T02:44:05.585Z,58.71
2018-08-25T02:44:47.046Z,58.81
2018-08-25T02:45:27.337Z,58.84
2018-08-25T02:46:07.713Z,59.89
2018-08-25T02:46:48.201Z,59.51
2018-08-25T02:47:28.498Z,60.66
2018-08-25T02:48:08.894Z,60.08
2018-08-25T02:48:49.459Z,59.58
2018-08-25T02:49:30.131Z,60.66
2018-08-25T02:50:10.559Z,61.78
2018-08-25T02:50:51.152Z,61.05
2018-08-25T02:53:11.231Z,61.49
2018-08-25T02:53:52.550Z,62.07
2018-08-25T02:54:32.964Z,61.49
2018-08-25T02:55:14.086Z,62.36
2018-08-25T02:55:54.492Z,63.51
2018-08-25T02:56:35.023Z,63.42
2018-08-25T02:57:15.673Z,63.42
2018-08-25T02:57:56.112Z,63.42
2018-08-25T02:58:36.782Z,64.18
2018-08-25T02:59:17.202Z,63.99
2018-08-25T02:59:58.420Z,64.56
2018-08-25T03:00:39.061Z,63.89
2018-08-25T03:02:30.955Z,63.99
2018-08-25T03:03:11.144Z,63.42
2018-08-25T03:03:51.457Z,64.28
2018-08-25T03:04:31.946Z,64.56
2018-08-25T03:05:12.647Z,63.99
2018-08-25T03:05:53.142Z,63.42
2018-08-25T03:06:33.513Z,63.42
2018-08-25T03:11:18.338Z,63.22
2018-08-25T03:11:58.821Z,64.28
2018-08-25T03:12:39.634Z,64.28
2018-08-25T03:13:20.023Z,64.66
2018-08-25T03:14:00.403Z,64.47
2018-08-25T03:14:41.042Z,64.56
2018-08-25T03:15:21.805Z,64.95
2018-08-25T03:16:02.715Z,64.66
2018-08-25T03:16:43.110Z,64.66
2018-08-25T03:17:23.440Z,64.28
2018-08-25T03:18:03.874Z,64.28
2018-08-25T03:18:44.466Z,64.09
2018-08-25T03:19:24.945Z,63.89
2018-08-25T03:20:06.457Z,64.18
2018-08-25T03:20:47.071Z,64.28
2018-08-25T03:21:27.800Z,64.28
2018-08-25T03:22:08.249Z,64.66
2018-08-25T03:22:48.685Z,64.56
2018-08-25T03:23:29.324Z,65.14
2018-08-25T03:24:09.665Z,65.23
2018-08-25T03:24:50.185Z,65.14
2018-08-25T03:25:30.679Z,65.52
2018-08-25T03:26:11.143Z,65.72
2018-08-25T03:26:51.427Z,66.1
2018-08-25T03:27:31.985Z,65.91
2018-08-25T03:28:12.381Z,65.72
2018-08-25T03:28:53.304Z,65.52
2018-08-25T03:29:34.389Z,65.52
2018-08-25T03:30:14.704Z,66
2018-08-25T03:30:55.042Z,66.29
2018-08-25T03:31:35.460Z,66.1
2018-08-25T03:32:15.818Z,66.39
2018-08-25T03:32:56.387Z,66.39
2018-08-25T03:33:37.108Z,66.39
2018-08-25T03:34:17.631Z,65.72
2018-08-25T03:34:58.541Z,65.52
2018-08-25T03:35:38.587Z,66
2018-08-25T03:36:19.008Z,66.77
2018-08-25T03:36:59.708Z,65.91
2018-08-25T03:37:43.507Z,66.19
2018-08-25T03:38:24.289Z,65.14
2018-08-25T03:39:04.385Z,65.23
2018-08-25T03:39:44.903Z,65.33
2018-08-25T03:40:25.387Z,65.33
2018-08-25T03:41:05.810Z,65.81
2018-08-25T03:41:46.420Z,67.83
2018-08-25T03:42:26.855Z,67.16
2018-08-25T03:43:09.383Z,67.16
2018-08-25T03:43:48.027Z,67.16
2018-08-25T03:44:29.122Z,67.63
2018-08-25T03:45:09.592Z,67.83
2018-08-25T03:45:50.029Z,68.3
2018-08-25T03:46:30.398Z,68.37
2018-08-25T03:47:10.973Z,68.21
2018-08-25T03:47:51.547Z,68.46
2018-08-25T03:48:32.566Z,69.17
2018-08-25T03:49:12.947Z,69.26
2018-08-25T03:49:53.771Z,69.46
2018-08-25T03:50:35.646Z,69.65
2018-08-25T03:51:16.225Z,69.9
2018-08-25T03:51:56.661Z,69.62
2018-08-25T03:52:37.032Z,69.62
2018-08-25T03:53:17.877Z,69.62
2018-08-25T03:53:58.908Z,69.52
2018-08-25T03:54:40.539Z,69.42
2018-08-25T03:55:21.186Z,69.42
2018-08-25T03:56:02.422Z,69.62
2018-08-25T03:56:43.122Z,69.9
2018-08-25T03:57:23.418Z,69.65
2018-08-25T03:58:03.924Z,69.36
2018-08-25T03:58:44.310Z,69.52
2018-08-25T03:59:24.773Z,70.09
2018-08-25T04:00:05.278Z,70.09
2018-08-25T04:00:45.697Z,70.38
2018-08-25T04:01:26.312Z,69.9
2018-08-25T04:02:06.704Z,69.9
2018-08-25T04:02:47.042Z,70
2018-08-25T04:03:27.497Z,71.44
2018-08-25T04:04:08.020Z,70.99
2018-08-25T04:04:48.436Z,71.44
2018-08-25T04:05:29.896Z,71.92
2018-08-25T04:06:10.364Z,72.97
2018-08-25T04:06:50.943Z,73.16
2018-08-25T04:07:31.303Z,73.65
2018-08-25T04:08:11.713Z,73.55
2018-08-25T04:08:52.185Z,74.37
2018-08-25T04:09:32.596Z,75.23
2018-08-25T04:10:14.233Z,75.43
2018-08-25T04:10:53.448Z,75.87
2018-08-25T04:11:33.860Z,76.54
2018-08-25T04:12:14.409Z,77.02
2018-08-25T04:12:55.269Z,76.44
2018-08-25T04:13:35.555Z,77.84
2018-08-25T04:14:15.955Z,79.75
2018-08-25T04:14:56.756Z,79.57
2018-08-25T04:15:36.946Z,78.22
2018-08-25T04:16:17.426Z,78.8
2018-08-25T04:16:58.173Z,78.89
2018-08-25T04:17:39.146Z,80
2018-08-25T04:18:22.156Z,80.62
2018-08-25T04:19:02.076Z,80.58
2018-08-25T04:19:42.505Z,79.33
2018-08-25T04:20:22.873Z,79.24
2018-08-25T04:21:03.348Z,77.51
2018-08-25T04:21:44.060Z,78.76
2018-08-25T04:22:25.219Z,78.28
2018-08-25T04:23:05.914Z,79.39
2018-08-25T04:23:47.068Z,79.58
2018-08-25T04:24:27.244Z,81.4
2018-08-25T04:25:08.262Z,81.59
2018-08-25T04:25:49.562Z,82.45
2018-08-25T04:26:30.323Z,82.93
2018-08-25T04:27:11.334Z,84.08
2018-08-25T05:14:53.761Z,90.82
2018-08-25T05:15:34.196Z,90.82
2018-08-25T05:16:14.726Z,90.82
2018-08-25T05:16:54.983Z,90.92
2018-08-25T05:17:36.329Z,89.48
2018-08-25T05:18:16.700Z,89.29
2018-08-25T05:18:57.208Z,90.06
2018-08-25T05:19:37.617Z,89.2
2018-08-25T05:20:17.929Z,89.29
2018-08-25T05:20:58.314Z,89.29
2018-08-25T05:21:38.743Z,89.01
2018-08-25T05:22:19.433Z,88.72
2018-08-25T05:23:00.886Z,88.91
2018-08-25T05:23:41.232Z,88.53
2018-08-25T05:24:21.660Z,88
2018-08-25T05:25:02.861Z,88.19
2018-08-25T05:25:43.229Z,87.52
2018-08-25T05:26:23.628Z,86.66
2018-08-25T05:27:04.912Z,87.43
2018-08-25T05:27:45.207Z,86.94
2018-08-25T05:29:32.679Z,86.76
2018-08-25T05:30:15.399Z,86.76
2018-08-25T05:30:55.911Z,87.14
2018-08-25T05:31:36.271Z,87.9
2018-08-25T05:32:16.670Z,87.52
2018-08-25T05:32:57.071Z,86.28
2018-08-25T05:33:37.601Z,85.94
2018-08-25T05:34:18.016Z,85.55
2018-08-25T05:34:58.430Z,85.08
2018-08-25T05:35:38.812Z,85.17
2018-08-25T05:36:19.198Z,85.08
2018-08-25T05:36:59.752Z,84.69
2018-08-25T05:37:40.181Z,84.69
2018-08-25T05:38:20.533Z,84.22
2018-08-25T05:39:00.971Z,84.69
2018-08-25T05:39:41.402Z,83.54
2018-08-25T05:40:21.897Z,83.36
2018-08-25T05:41:02.509Z,82.59
2018-08-25T05:41:42.999Z,82.34
2018-08-25T05:42:23.473Z,82.92
2018-08-25T05:43:03.799Z,82.97
2018-08-25T05:43:44.239Z,82.78
2018-08-25T05:44:24.648Z,83.45
2018-08-25T05:45:05.122Z,83.45
2018-08-25T05:45:45.516Z,82.97
2018-08-25T05:46:25.890Z,82.4
2018-08-25T05:47:06.356Z,81.82
2018-08-25T05:47:46.763Z,82.78
2018-08-25T05:48:27.147Z,83.11
2018-08-25T05:49:07.572Z,83.16
2018-08-25T05:49:47.946Z,81.73
2018-08-25T05:50:28.350Z,81.73
2018-08-25T05:51:08.814Z,82.2
2018-08-25T05:51:49.241Z,82.3
2018-08-25T05:52:29.632Z,82.4
2018-08-25T05:53:10.129Z,82.59
2018-08-25T05:53:50.498Z,82.49
2018-08-25T05:54:30.891Z,82.49
2018-08-25T05:55:11.311Z,81.82
2018-08-25T05:55:51.771Z,81.34
2018-08-25T05:56:32.153Z,81.05
2018-08-25T05:57:12.544Z,81.54
2018-08-25T05:57:55.867Z,81.05
2018-08-25T05:58:36.267Z,81.1
2018-08-25T05:59:16.619Z,80.43
2018-08-25T05:59:56.999Z,79.95
2018-08-25T06:00:37.559Z,79.57
2018-08-25T06:01:18.156Z,78.95
2018-08-25T06:01:58.675Z,79.43
2018-08-25T06:02:39.262Z,79.05
2018-08-25T06:03:19.672Z,79.91
2018-08-25T06:04:00.063Z,79.91
2018-08-25T06:04:40.399Z,79.62
2018-08-25T06:05:20.839Z,79.43
2018-08-25T06:06:01.277Z,79.62
2018-08-25T06:06:41.731Z,79.33
2018-08-25T06:07:22.121Z,79.43
2018-08-25T06:08:02.510Z,80.1
2018-08-25T06:08:42.913Z,80.19
2018-08-25T06:09:23.277Z,79.91
2018-08-25T06:10:03.662Z,79.72
2018-08-25T06:10:44.062Z,78.95
2018-08-25T06:11:24.483Z,79.37
2018-08-25T06:12:04.902Z,78.99
2018-08-25T06:12:45.301Z,76.92
2018-08-25T06:13:25.738Z,76.64
2018-08-25T06:14:06.172Z,76.73
2018-08-25T06:14:46.624Z,75.43
2018-08-25T06:15:27.001Z,73.8
2018-08-25T06:16:07.412Z,72.59
2018-08-25T06:16:48.226Z,72.39
2018-08-25T06:17:29.087Z,72.2
2018-08-25T06:18:09.269Z,71.28
2018-08-25T06:18:49.948Z,70.7
2018-08-25T06:19:30.405Z,69.46
2018-08-25T06:20:10.868Z,68.88
2018-08-25T06:20:51.267Z,69.07
2018-08-25T06:21:31.675Z,68.3
2018-08-25T06:22:12.347Z,68.44
2018-08-25T06:22:52.762Z,67.67
2018-08-25T06:23:33.140Z,67
2018-08-25T06:24:13.699Z,67.19
2018-08-25T06:24:53.979Z,66.9
2018-08-25T06:25:34.411Z,67.29
2018-08-25T06:26:14.959Z,67.29
2018-08-25T06:26:55.414Z,67.38
2018-08-25T06:27:36.083Z,67.19
2018-08-25T06:28:16.994Z,66.46
2018-08-25T06:28:57.428Z,65.88
2018-08-25T06:29:38.043Z,66.13
2018-08-25T06:30:18.450Z,66.61
2018-08-25T06:30:58.708Z,68.59
2018-08-25T06:31:39.431Z,68.79
2018-08-25T06:32:19.906Z,68.5
2018-08-25T06:33:00.378Z,69.04
2018-08-25T06:33:41.052Z,70
2018-08-25T06:34:21.483Z,69.62
2018-08-25T06:35:01.855Z,70
2018-08-25T06:35:42.940Z,70.76
2018-08-25T06:36:23.437Z,70
2018-08-25T06:37:03.881Z,70.67
2018-08-25T06:37:44.376Z,71.92
2018-08-25T06:38:24.818Z,71.4
2018-08-25T06:39:05.241Z,71.5
2018-08-25T06:39:45.693Z,72.17
2018-08-25T06:40:27.213Z,72.27
2018-08-25T06:41:08.443Z,72.59
2018-08-25T06:41:49.062Z,72.59
2018-08-25T06:42:29.463Z,71.44
2018-08-25T06:43:10.201Z,70.23
2018-08-25T06:43:50.715Z,69.84
2018-08-25T06:44:31.057Z,69.26
2018-08-25T06:46:35.869Z,69.84
2018-08-25T06:47:28.183Z,69.93
2018-08-25T06:48:21.880Z,70.32
2018-08-25T06:49:17.665Z,70.03
2018-08-25T06:50:17.062Z,70.23
2018-08-25T06:53:12.278Z,70.96
2018-08-25T06:54:07.561Z,71.15
2018-08-25T06:55:00.614Z,71.92
2018-08-25T06:55:53.193Z,71.44
2018-08-25T06:56:46.730Z,71.44
2018-08-25T06:57:39.050Z,71.44
2018-08-25T06:58:33.799Z,71.15
2018-08-25T06:59:26.788Z,70.67
2018-08-25T07:00:19.690Z,70.99
2018-08-25T07:01:12.175Z,69.36
2018-08-25T07:02:04.598Z,68.69
2018-08-25T07:04:07.102Z,68.44
2018-08-25T07:05:07.477Z,68.34
2018-08-25T07:06:06.300Z,67.32
2018-08-25T07:07:04.497Z,65.49
2018-08-25T07:08:00.780Z,66.16
2018-08-25T07:08:55.164Z,65.23
2018-08-25T07:09:57.089Z,63.32
2018-08-25T07:10:56.012Z,62.96
2018-08-25T07:11:51.799Z,62.68
2018-08-25T07:12:44.963Z,61.55
2018-08-25T07:13:39.900Z,61.26
2018-08-25T07:14:34.452Z,59.63
2018-08-25T07:15:29.762Z,60.97
2018-08-25T07:16:25.557Z,60.59
2018-08-25T07:17:19.758Z,59.66
2018-08-25T07:18:03.171Z,58.98
2018-08-25T07:18:43.610Z,58.02
2018-08-25T07:19:23.974Z,58.4
2018-08-25T07:20:07.566Z,57.54
2018-08-25T07:20:53.759Z,57.8
2018-08-25T07:21:36.830Z,58.47
2018-08-25T07:22:17.584Z,58.18
2018-08-25T07:22:59.081Z,58.92
2018-08-25T07:23:50.219Z,59.79
2018-08-25T07:24:30.468Z,60.66
2018-08-25T07:25:10.811Z,59.99
2018-08-25T07:25:51.352Z,60.56
2018-08-25T07:26:31.702Z,61.33
2018-08-25T07:27:12.125Z,61.23
2018-08-25T07:27:52.576Z,61.01
2018-08-25T07:28:33.017Z,61.61
2018-08-25T07:29:13.461Z,60.56
2018-08-25T07:29:53.809Z,61.97
2018-08-25T07:30:34.225Z,61.58
2018-08-25T07:31:14.638Z,61.58
2018-08-25T07:31:55.185Z,62.45
2018-08-25T07:32:35.493Z,62.07
2018-08-25T07:33:15.950Z,61.78
2018-08-25T07:33:56.361Z,62.35
2018-08-25T07:34:38.001Z,62.45
2018-08-25T07:35:26.554Z,62.45
2018-08-25T07:36:09.146Z,62.04
2018-08-25T07:36:49.827Z,63.28
2018-08-25T07:37:32.184Z,62.99
2018-08-25T07:38:13.573Z,62.32
2018-08-25T07:38:54.725Z,61.65
2018-08-25T07:41:27.649Z,60.72
2018-08-25T07:42:21.946Z,60.82
2018-08-25T07:43:14.792Z,59.69
2018-08-25T07:44:10.240Z,58.86
2018-08-25T07:45:03.849Z,57.8
2018-08-25T07:45:59.753Z,57.35
2018-08-25T07:46:53.082Z,57.15
2018-08-25T07:47:48.222Z,55.62
2018-08-25T07:48:44.735Z,56.77
2018-08-25T07:49:38.326Z,57.25
2018-08-25T07:50:37.131Z,56.96
2018-08-25T07:51:29.761Z,56.65
2018-08-25T07:52:21.348Z,56.84
2018-08-25T07:54:19.604Z,58.35
2018-08-25T07:55:17.708Z,58.83
2018-08-25T07:56:17.977Z,58.92
2018-08-25T07:57:13.794Z,59.99
2018-08-25T07:58:09.351Z,60.94
2018-08-25T07:59:02.611Z,59.5
2018-08-25T07:59:56.342Z,59.44
2018-08-25T08:00:53.475Z,58.76
2018-08-25T08:01:44.483Z,58.47
2018-08-25T08:02:26.666Z,58.37
2018-08-25T08:03:07.060Z,58.57
2018-08-25T08:03:47.557Z,58.73
2018-08-25T08:04:27.913Z,59.6
2018-08-25T08:05:08.330Z,59.31
2018-08-25T08:05:48.701Z,59.31
2018-08-25T08:06:29.074Z,59.41
2018-08-25T08:07:09.547Z,59.66
2018-08-25T08:07:49.951Z,60.43
2018-08-25T08:08:30.434Z,60.63
2018-08-25T08:09:10.842Z,60.72
2018-08-25T08:09:51.283Z,61.08
2018-08-25T08:10:31.683Z,62.04
2018-08-25T08:11:12.078Z,61.75
2018-08-25T08:11:52.613Z,62.13
2018-08-25T08:12:32.839Z,61.55
2018-08-25T08:13:13.256Z,61.58
2018-08-25T08:13:53.730Z,60.91
2018-08-25T08:14:34.149Z,60.69
2018-08-25T08:15:14.601Z,60.88
2018-08-25T08:15:54.946Z,61.36
2018-08-25T08:16:35.382Z,62.32
2018-08-25T08:17:15.741Z,62.04
2018-08-25T08:17:56.169Z,62.81
2018-08-25T08:18:36.587Z,63.28
2018-08-25T08:19:16.967Z,62.61
2018-08-25T08:19:57.337Z,62.52
2018-08-25T08:20:37.817Z,62.81
2018-08-25T08:21:18.223Z,62.52
2018-08-25T08:21:58.626Z,62.99
2018-08-25T08:22:39.099Z,62.61
2018-08-25T08:23:19.438Z,61.46
2018-08-25T08:23:59.840Z,60.91
2018-08-25T08:24:40.288Z,60.72
2018-08-25T08:25:20.675Z,60.72
2018-08-25T08:26:01.072Z,60.72
2018-08-25T08:26:41.498Z,59.31
2018-08-25T08:27:21.970Z,58.83
2018-08-25T08:28:02.360Z,57.9
2018-08-25T08:28:42.758Z,57.99
2018-08-25T08:29:23.174Z,57.35
2018-08-25T08:30:03.547Z,56.1
2018-08-25T08:30:43.943Z,55.81
2018-08-25T08:31:24.412Z,55.45
2018-08-25T08:32:04.759Z,54.1
2018-08-25T08:32:45.478Z,54.1
2018-08-25T08:33:25.879Z,53.74
2018-08-25T08:34:06.292Z,54.39
2018-08-25T08:34:46.661Z,54
2018-08-25T08:35:27.073Z,54.1
2018-08-25T08:36:07.579Z,54.78
2018-08-25T08:36:47.939Z,54.65
2018-08-25T08:37:28.412Z,54.56
2018-08-25T08:38:09.128Z,54.75
2018-08-25T08:38:49.558Z,54.17
2018-08-25T08:39:30.167Z,54.36
2018-08-25T08:40:10.605Z,55.13
2018-08-25T08:40:51.001Z,54.97
2018-08-25T08:41:31.456Z,54.87
2018-08-25T08:42:11.924Z,54.61
2018-08-25T08:42:52.275Z,54.22
2018-08-25T08:43:32.649Z,53.67
2018-08-25T08:44:13.047Z,52.61
2018-08-25T08:44:53.625Z,52.61
2018-08-25T08:45:34.220Z,51.36
2018-08-25T08:46:14.466Z,51.65
2018-08-25T08:46:55.139Z,51.84
2018-08-25T08:48:48.312Z,50.69
2018-08-25T08:49:46.455Z,50.88
2018-08-25T08:50:16.969Z,51.36
2018-08-25T08:50:57.324Z,51.56
2018-08-25T08:51:37.741Z,50.78
2018-08-25T08:52:18.193Z,50.78
2018-08-25T08:52:58.572Z,50.98
2018-08-25T08:53:39.105Z,50.9
2018-08-25T08:54:19.544Z,50.42
2018-08-25T08:54:59.910Z,49.17
2018-08-25T08:55:40.437Z,49.48
2018-08-25T08:56:24.014Z,48.23
2018-08-25T08:57:04.847Z,48.06
2018-08-25T08:57:45.863Z,47.19
2018-08-25T08:58:26.493Z,47.09
2018-08-25T08:59:07.251Z,46.9
2018-08-25T08:59:49.470Z,46.51
2018-08-25T09:00:35.023Z,45.96
2018-08-25T09:01:16.599Z,45.38
2018-08-25T09:01:58.491Z,44.82
2018-08-25T09:02:40.060Z,44.12
2018-08-25T09:03:22.485Z,44.6
2018-08-25T09:04:06.030Z,45.09
2018-08-25T09:04:47.927Z,45.48
2018-08-25T09:05:30.616Z,45.86
2018-08-25T09:06:13.197Z,46.06
2018-08-25T09:06:55.812Z,45.79
2018-08-25T09:07:40.360Z,45.5
2018-08-25T09:08:21.309Z,45.38
2018-08-25T09:10:23.055Z,45.76
2018-08-25T09:13:12.659Z,45.92
2018-08-25T09:14:08.438Z,46.59
2018-08-25T09:15:03.006Z,47.07
2018-08-25T09:16:00.619Z,45.92
2018-08-25T09:16:55.613Z,45.94
2018-08-25T09:17:54.012Z,47
2018-08-25T09:18:46.408Z,46.54
2018-08-25T09:19:41.877Z,46.25
2018-08-25T09:20:37.589Z,45.79
2018-08-25T09:21:31.397Z,43.76
2018-08-25T09:22:28.593Z,43.18
2018-08-25T09:26:39.327Z,44.51
2018-08-25T09:27:35.465Z,43.54
2018-08-25T09:28:29.811Z,43.08
2018-08-25T09:29:25.351Z,43.64
2018-08-25T09:30:21.686Z,45
2018-08-25T09:31:15.983Z,45.38
2018-08-25T09:32:11.076Z,45
2018-08-25T09:33:07.298Z,45.28
2018-08-25T09:34:06.251Z,45
2018-08-25T09:35:09.050Z,44.03
2018-08-25T09:36:02.866Z,43.64
2018-08-25T09:37:08.726Z,43.95
2018-08-25T09:38:15.308Z,43.01
2018-08-25T09:44:25.508Z,42.99
2018-08-25T09:45:18.378Z,42.82
2018-08-25T09:46:12.223Z,42.7
2018-08-25T09:47:06.922Z,42.79
2018-08-25T09:48:03.497Z,42.89
2018-08-25T09:49:02.236Z,43.66
2018-08-25T09:49:58.062Z,43.64
2018-08-25T09:50:54.049Z,44.15
2018-08-25T09:51:54.585Z,43.28
2018-08-25T09:52:53.435Z,43.18
2018-08-25T09:53:50.619Z,43.3
2018-08-25T09:54:46.249Z,43.88
2018-08-25T09:55:45.994Z,43.01
2018-08-25T09:56:40.203Z,43.1
2018-08-25T09:57:38.089Z,43.51
2018-08-25T09:58:34.145Z,43.23
2018-08-25T09:59:34.000Z,42.25
2018-08-25T10:00:33.535Z,43.1
2018-08-25T10:01:42.177Z,43.59
2018-08-25T10:02:39.086Z,43.68
2018-08-25T10:03:30.543Z,43.4
2018-08-25T10:04:26.061Z,42.82
2018-08-25T10:05:22.909Z,42.72
2018-08-25T10:06:19.699Z,43.2
2018-08-25T10:07:15.030Z,42.72
2018-08-25T10:08:06.724Z,43.2
2018-08-25T10:08:51.468Z,43.03
2018-08-25T10:09:34.013Z,42.74
2018-08-25T10:12:00.691Z,43.32
2018-08-25T10:12:57.641Z,42.74
2018-08-25T10:13:50.980Z,41.97
2018-08-25T10:14:45.760Z,41.89
2018-08-25T10:15:40.574Z,41.7
2018-08-25T10:16:40.286Z,40.84
2018-08-25T10:17:33.555Z,41.33
2018-08-25T10:18:31.471Z,40.77
2018-08-25T10:19:27.554Z,40.58
2018-08-25T10:20:22.083Z,40.48
2018-08-25T10:21:16.853Z,39.51
2018-08-25T10:22:14.473Z,39.9
2018-08-25T10:23:09.402Z,40.19
2018-08-25T10:24:04.286Z,39.14
2018-08-25T10:25:00.444Z,38.66
2018-08-25T10:26:07.100Z,38.17
2018-08-25T10:27:02.137Z,37.79
2018-08-25T10:28:02.639Z,37.96
2018-08-25T10:28:55.812Z,38.27
2018-08-25T11:06:55.738Z,49.41
2018-08-25T11:07:36.815Z,49.12
2018-08-25T11:08:17.878Z,49.6
2018-08-25T11:08:59.949Z,49.7
2018-08-25T11:09:40.346Z,49.24
2018-08-25T11:10:21.574Z,49.53
2018-08-25T11:11:02.990Z,49.53
2018-08-25T11:11:43.775Z,49.91
2018-08-25T11:12:24.933Z,48.86
2018-08-25T11:13:05.514Z,49.65
2018-08-25T11:13:45.970Z,48.97
2018-08-25T11:14:26.379Z,47.36
2018-08-25T11:15:06.782Z,47.17
2018-08-25T11:15:47.762Z,47.29
2018-08-25T11:18:15.526Z,45.86
2018-08-25T11:20:22.168Z,45
2018-08-25T11:22:55.865Z,44.15
2018-08-25T11:23:37.747Z,43.85
2018-08-25T11:24:18.103Z,43.95
2018-08-25T11:24:58.521Z,43.28
2018-08-25T11:25:39.011Z,44.03
2018-08-25T11:26:19.383Z,44.7
2018-08-25T11:26:59.740Z,44.7
2018-08-25T11:27:40.113Z,45.17
2018-08-25T11:28:20.551Z,45.17